Time;durP1;ratioP1;P1;durP2;ratioP2;P2;SDS_P1;SDS_P2;PMS_P1;PMS_P2;Temp;Humidity;BMP_temperature;BMP_pressure;BME280_temperature;BME280_humidity;BME280_pressure;Samples;Min_cycle;Max_cycle;Signal;HPM_P1;HPM_P2
2022/10/19 00:01:47;;;;;;;2.08;1.05;;;10.10;99.90;;;;;;4954732;29;20074;-64
2022/10/19 00:04:12;;;;;;;2.55;1.60;;;10.20;99.90;;;;;;4954416;29;20130;-64
2022/10/19 00:06:38;;;;;;;3.63;0.88;;;10.00;99.90;;;;;;4954462;29;20134;-64
2022/10/19 00:09:10;;;;;;;6.35;1.23;;;9.90;99.90;;;;;;4939305;29;20118;-64
2022/10/19 00:11:39;;;;;;;11.18;1.42;;;10.10;99.90;;;;;;4941257;29;20058;-64
2022/10/19 00:14:05;;;;;;;7.82;1.73;;;9.90;99.90;;;;;;4958521;29;20047;-64
2022/10/19 00:16:34;;;;;;;5.30;1.40;;;10.10;99.90;;;;;;4958430;29;20051;-64
2022/10/19 00:19:02;;;;;;;5.70;1.70;;;9.90;99.90;;;;;;4958285;29;20031;-64
2022/10/19 00:21:28;;;;;;;3.97;1.70;;;9.90;99.90;;;;;;4941033;29;20047;-64
2022/10/19 00:23:54;;;;;;;4.53;1.92;;;9.90;99.90;;;;;;4958398;29;20048;-64
2022/10/19 00:26:19;;;;;;;4.18;1.75;;;10.00;99.90;;;;;;4941007;29;20147;-64
2022/10/19 00:28:45;;;;;;;6.00;1.75;;;10.00;99.90;;;;;;4940964;29;20047;-64
2022/10/19 00:31:15;;;;;;;8.07;2.08;;;10.00;99.90;;;;;;4941232;29;20039;-63
2022/10/19 00:33:43;;;;;;;5.30;1.95;;;10.00;99.90;;;;;;4957784;29;20035;-64
2022/10/19 00:36:19;;;;;;;5.72;2.38;;;9.90;99.90;;;;;;4958287;29;20031;-64
2022/10/19 00:38:46;;;;;;;6.65;2.15;;;10.00;99.90;;;;;;4940863;29;20398;-64
2022/10/19 00:41:11;;;;;;;4.60;2.45;;;9.80;99.90;;;;;;4957961;29;20038;-64
2022/10/19 00:44:01;;;;;;;6.05;2.45;;;10.00;99.90;;;;;;4958073;29;20035;-64
2022/10/19 00:46:28;;;;;;;11.63;3.15;;;9.90;99.90;;;;;;4929826;29;20039;-64
2022/10/19 00:49:05;;;;;;;8.88;1.92;;;9.90;99.90;;;;;;4957906;29;20039;-64
2022/10/19 00:51:32;;;;;;;7.38;2.50;;;10.00;99.90;;;;;;4957998;29;20042;-64
2022/10/19 00:53:59;;;;;;;6.10;2.25;;;9.80;99.90;;;;;;4957546;29;20106;-64
2022/10/19 00:56:25;;;;;;;9.02;2.13;;;10.10;99.90;;;;;;4958110;29;20051;-63
2022/10/19 00:58:51;;;;;;;5.07;1.73;;;9.90;99.90;;;;;;4940643;29;20406;-64
2022/10/19 01:01:19;;;;;;;5.75;1.73;;;9.70;99.90;;;;;;4957462;29;20034;-63
2022/10/19 01:03:45;;;;;;;2.65;1.90;;;9.70;99.90;;;;;;4957462;29;20458;-64
2022/10/19 01:06:13;;;;;;;2.58;1.70;;;9.60;99.90;;;;;;4940475;29;20047;-64
2022/10/19 01:08:39;;;;;;;3.65;1.48;;;9.80;99.90;;;;;;4957921;29;20035;-64
2022/10/19 01:11:13;;;;;;;1.50;1.10;;;9.70;99.90;;;;;;4957716;29;20122;-64
2022/10/19 01:14:22;;;;;;;2.07;1.30;;;9.50;99.90;;;;;;4957512;29;20436;-64
2022/10/19 01:17:34;;;;;;;10.68;2.72;;;9.60;99.90;;;;;;4898861;29;20066;-64
2022/10/19 01:20:32;;;;;;;4.72;1.70;;;9.50;99.90;;;;;;4900213;29;20048;-64
2022/10/19 01:23:16;;;;;;;6.13;1.85;;;9.60;99.90;;;;;;4949105;29;20178;-64
2022/10/19 01:25:50;;;;;;;3.38;1.58;;;9.30;99.90;;;;;;4939927;29;20046;-64
2022/10/19 01:28:40;;;;;;;6.18;1.85;;;9.50;99.90;;;;;;4939941;29;20078;-64
2022/10/19 01:31:21;;;;;;;2.50;1.58;;;9.40;99.90;;;;;;4928695;29;20059;-64
2022/10/19 01:34:03;;;;;;;1.13;0.80;;;9.20;99.90;;;;;;4939343;29;20051;-63
2022/10/19 01:36:47;;;;;;;1.45;1.10;;;9.20;99.90;;;;;;4939759;29;20094;-64
2022/10/19 01:39:31;;;;;;;2.33;1.20;;;9.30;99.90;;;;;;4923741;29;20039;-63
2022/10/19 01:42:13;;;;;;;1.75;1.10;;;9.20;99.90;;;;;;4939451;29;20133;-63
2022/10/19 01:44:50;;;;;;;3.47;1.85;;;9.30;99.90;;;;;;4944922;29;20118;-63
2022/10/19 01:47:22;;;;;;;6.18;1.70;;;9.20;99.90;;;;;;4957101;29;20039;-64
2022/10/19 01:49:51;;;;;;;4.30;1.92;;;9.40;99.90;;;;;;4939800;29;20058;-63
2022/10/19 01:52:19;;;;;;;7.45;1.83;;;9.40;99.90;;;;;;4939377;29;20126;-64
2022/10/19 01:54:50;;;;;;;8.80;2.30;;;9.40;99.90;;;;;;4956604;29;20126;-63
2022/10/19 01:57:21;;;;;;;6.60;1.73;;;9.20;99.90;;;;;;4956664;29;20126;-64
2022/10/19 01:59:48;;;;;;;6.43;1.65;;;9.40;99.90;;;;;;4923545;29;20089;-64
2022/10/19 02:02:15;;;;;;;2.78;1.60;;;;;;;;;;4939324;29;20510;-63
2022/10/19 02:04:41;;;;;;;8.38;1.70;;;9.50;99.90;;;;;;4956205;29;20047;-64
2022/10/19 02:07:08;;;;;;;4.90;1.25;;;9.40;99.90;;;;;;4939457;29;20078;-63
2022/10/19 02:09:34;;;;;;;2.63;1.58;;;9.40;99.90;;;;;;4956684;29;20375;-64
2022/10/19 02:12:03;;;;;;;4.32;1.70;;;9.40;99.90;;;;;;4939254;29;20053;-63
2022/10/19 02:14:38;;;;;;;6.32;1.70;;;9.40;99.90;;;;;;4939030;29;20043;-64
2022/10/19 02:17:15;;;;;;;6.95;1.65;;;;;;;;;;4956546;29;20062;-63
2022/10/19 02:19:42;;;;;;;7.40;2.10;;;9.40;99.90;;;;;;4956213;29;20062;-63
2022/10/19 02:22:08;;;;;;;6.38;2.15;;;9.50;99.90;;;;;;4956291;29;20117;-64
2022/10/19 02:24:34;;;;;;;3.13;2.10;;;9.40;99.90;;;;;;4955976;29;20054;-63
2022/10/19 02:27:00;;;;;;;4.47;2.20;;;9.30;99.90;;;;;;4956046;29;20043;-64
2022/10/19 02:29:27;;;;;;;4.45;2.38;;;9.50;99.90;;;;;;4938914;29;20047;-63
2022/10/19 02:31:52;;;;;;;7.88;2.28;;;9.50;99.90;;;;;;4955073;28;20086;-64
2022/10/19 02:34:18;;;;;;;6.15;2.72;;;9.50;99.90;;;;;;4938830;29;20482;-63
2022/10/19 02:36:44;;;;;;;4.20;2.33;;;9.50;99.90;;;;;;4955882;28;20039;-64
2022/10/19 02:39:09;;;;;;;4.57;2.72;;;9.40;99.90;;;;;;4937884;29;20073;-63
2022/10/19 02:41:51;;;;;;;7.90;2.35;;;9.40;99.90;;;;;;4954231;29;20550;-64
2022/10/19 02:44:28;;;;;;;13.02;1.98;;;9.30;99.90;;;;;;4925692;29;20125;-63
2022/10/19 02:47:05;;;;;;;5.63;2.08;;;9.20;99.90;;;;;;4955853;29;20035;-63
2022/10/19 02:49:34;;;;;;;12.00;2.47;;;9.00;99.90;;;;;;4955488;29;20051;-64
2022/10/19 02:52:02;;;;;;;4.97;2.60;;;9.20;99.90;;;;;;4955916;29;20045;-64
2022/10/19 02:54:28;;;;;;;4.20;1.60;;;9.00;99.90;;;;;;4955631;29;20602;-63
2022/10/19 02:56:54;;;;;;;2.88;2.15;;;9.00;99.90;;;;;;4938169;29;20117;-63
2022/10/19 02:59:20;;;;;;;4.55;2.20;;;9.00;99.90;;;;;;4938100;29;20070;-63
2022/10/19 03:01:45;;;;;;;5.55;1.95;;;9.00;99.90;;;;;;4955146;29;20043;-64
2022/10/19 03:04:11;;;;;;;7.13;2.30;;;9.00;99.90;;;;;;4938195;29;20039;-63
2022/10/19 03:06:37;;;;;;;6.05;2.22;;;9.10;99.90;;;;;;4955281;29;20050;-64
2022/10/19 03:09:02;;;;;;;5.90;2.17;;;9.20;99.90;;;;;;4938482;29;20042;-63
2022/10/19 03:11:28;;;;;;;5.15;1.80;;;9.20;99.90;;;;;;4955648;29;20497;-63
2022/10/19 03:13:53;;;;;;;4.80;1.60;;;9.10;99.90;;;;;;4955280;29;20039;-63
2022/10/19 03:16:19;;;;;;;9.23;2.47;;;9.10;99.90;;;;;;4938018;29;20047;-64
2022/10/19 03:18:47;;;;;;;6.65;2.03;;;9.10;99.90;;;;;;4941548;29;20052;-63
2022/10/19 03:21:13;;;;;;;5.75;2.20;;;9.20;99.90;;;;;;4955223;28;20081;-64
2022/10/19 03:23:40;;;;;;;5.82;2.47;;;9.20;99.90;;;;;;4954978;29;20036;-64
2022/10/19 03:26:07;;;;;;;6.85;2.50;;;9.30;99.90;;;;;;4955240;29;20437;-64
2022/10/19 03:28:33;;;;;;;8.48;2.67;;;9.40;99.90;;;;;;4955352;29;20039;-63
2022/10/19 03:30:59;;;;;;;9.35;2.92;;;9.40;99.90;;;;;;4954964;29;20089;-64
2022/10/19 03:33:24;;;;;;;5.28;2.78;;;9.30;99.90;;;;;;4954792;29;20039;-63
2022/10/19 03:36:05;;;;;;;5.60;2.10;;;9.40;99.90;;;;;;4954849;29;20039;-64
2022/10/19 03:38:30;;;;;;;10.23;2.80;;;9.40;99.90;;;;;;4955011;29;20035;-63
2022/10/19 03:40:56;;;;;;;8.13;2.75;;;9.20;99.90;;;;;;4937494;29;20122;-63
2022/10/19 03:43:22;;;;;;;8.27;2.65;;;9.30;99.90;;;;;;4954782;28;20545;-64
2022/10/19 03:45:47;;;;;;;10.20;2.47;;;9.30;99.90;;;;;;4954875;29;20050;-64
2022/10/19 03:48:13;;;;;;;4.90;2.63;;;;;;;;;;4937269;29;20066;-64
2022/10/19 03:50:39;;;;;;;8.57;2.80;;;9.30;99.90;;;;;;4937539;29;20086;-63
2022/10/19 03:53:04;;;;;;;6.28;3.45;;;9.60;99.90;;;;;;4937415;29;20043;-63
2022/10/19 03:55:30;;;;;;;7.13;2.55;;;9.50;99.90;;;;;;4936877;29;20122;-63
2022/10/19 03:57:56;;;;;;;11.75;2.70;;;9.50;99.90;;;;;;4936719;29;20477;-64
2022/10/19 04:00:22;;;;;;;3.22;2.17;;;9.50;99.90;;;;;;4953893;29;20141;-63
2022/10/19 04:02:48;;;;;;;9.30;2.58;;;;;;;;;;4953910;29;20534;-64
2022/10/19 04:05:13;;;;;;;6.38;2.38;;;9.50;99.90;;;;;;4953769;29;20040;-63
2022/10/19 04:07:39;;;;;;;2.72;1.95;;;9.30;99.90;;;;;;4954101;29;20035;-63
2022/10/19 04:10:05;;;;;;;8.00;2.97;;;9.30;99.90;;;;;;4953757;29;20119;-63
2022/10/19 04:12:30;;;;;;;4.82;2.35;;;9.40;99.90;;;;;;4936810;29;20134;-64
2022/10/19 04:14:56;;;;;;;5.30;2.30;;;9.30;99.90;;;;;;4953671;29;20043;-63
2022/10/19 04:17:21;;;;;;;11.75;3.63;;;9.30;99.90;;;;;;4953888;29;20047;-63
2022/10/19 04:19:47;;;;;;;5.25;2.55;;;9.20;99.90;;;;;;4953563;29;20138;-63
2022/10/19 04:22:12;;;;;;;6.13;2.33;;;9.40;99.90;;;;;;4936381;29;20051;-63
2022/10/19 04:24:38;;;;;;;7.97;2.45;;;9.40;99.90;;;;;;4953796;29;20044;-63
2022/10/19 04:27:03;;;;;;;8.68;2.17;;;9.40;99.90;;;;;;4936281;29;20039;-64
2022/10/19 04:29:29;;;;;;;3.63;1.70;;;9.30;99.90;;;;;;4953488;29;20043;-63
2022/10/19 04:31:54;;;;;;;9.38;2.70;;;9.30;99.90;;;;;;4953210;29;20039;-64
2022/10/19 04:34:20;;;;;;;3.03;2.33;;;9.40;99.90;;;;;;4953484;29;20031;-63
2022/10/19 04:36:45;;;;;;;9.35;3.05;;;9.40;99.90;;;;;;4953766;29;20086;-63
2022/10/19 04:39:11;;;;;;;8.50;1.90;;;9.30;99.90;;;;;;4953547;29;20043;-63
2022/10/19 04:41:37;;;;;;;10.52;2.53;;;9.20;99.90;;;;;;4953377;29;20049;-64
2022/10/19 04:44:07;;;;;;;12.10;2.90;;;9.40;99.90;;;;;;4953293;29;20038;-63
2022/10/19 04:46:33;;;;;;;6.07;2.28;;;9.20;99.90;;;;;;4936169;29;20046;-64
2022/10/19 04:48:59;;;;;;;4.53;2.28;;;9.30;99.90;;;;;;4953264;29;20035;-63
2022/10/19 04:51:25;;;;;;;4.55;2.35;;;9.20;99.90;;;;;;4953447;29;20044;-63
2022/10/19 04:53:52;;;;;;;3.40;1.88;;;9.10;99.90;;;;;;4949851;28;90039;-63
2022/10/19 04:56:22;;;;;;;2.90;2.00;;;9.10;99.90;;;;;;4956639;29;20545;-63
2022/10/19 04:58:48;;;;;;;7.00;2.50;;;9.00;99.90;;;;;;4940505;29;20043;-63
2022/10/19 05:01:21;;;;;;;2.72;1.70;;;9.00;99.90;;;;;;4957331;29;20069;-63
2022/10/19 05:03:47;;;;;;;9.10;2.20;;;8.80;99.90;;;;;;4940630;29;20480;-63
2022/10/19 05:06:14;;;;;;;7.03;2.28;;;9.00;99.90;;;;;;4940361;29;20039;-63
2022/10/19 05:08:39;;;;;;;5.00;1.90;;;8.80;99.90;;;;;;4944411;29;20031;-63
2022/10/19 05:11:09;;;;;;;4.03;1.77;;;8.80;99.90;;;;;;4957357;29;20066;-63
2022/10/19 05:13:38;;;;;;;2.45;1.50;;;;;;;;;;4957326;29;20039;-63
2022/10/19 05:16:05;;;;;;;3.42;1.85;;;8.70;99.90;;;;;;4957491;29;20183;-63
2022/10/19 05:18:31;;;;;;;3.05;1.60;;;8.70;99.90;;;;;;4957153;29;20446;-63
2022/10/19 05:21:05;;;;;;;3.55;2.00;;;8.60;99.90;;;;;;4957135;29;20049;-63
2022/10/19 05:23:31;;;;;;;3.97;2.20;;;8.80;99.90;;;;;;4940057;29;20047;-63
2022/10/19 05:26:12;;;;;;;7.45;2.72;;;8.60;99.90;;;;;;4940121;29;20482;-63
2022/10/19 05:28:38;;;;;;;2.28;2.08;;;8.70;99.90;;;;;;4957132;29;20043;-63
2022/10/19 05:31:05;;;;;;;3.38;1.77;;;8.80;99.90;;;;;;4940313;29;20220;-63
2022/10/19 05:33:30;;;;;;;4.18;2.60;;;8.70;99.90;;;;;;4939857;29;20074;-63
2022/10/19 05:35:56;;;;;;;4.30;2.10;;;8.70;99.90;;;;;;4957192;29;20050;-63
2022/10/19 05:38:21;;;;;;;3.97;2.22;;;8.60;99.90;;;;;;4939777;29;20556;-63
2022/10/19 05:40:47;;;;;;;5.95;2.42;;;8.70;99.90;;;;;;4956844;29;20068;-63
2022/10/19 05:43:12;;;;;;;2.70;2.30;;;8.60;99.90;;;;;;4939869;29;20086;-63
2022/10/19 05:45:38;;;;;;;3.58;2.20;;;8.60;99.90;;;;;;4956994;29;20093;-63
2022/10/19 05:48:04;;;;;;;7.70;2.10;;;8.70;99.90;;;;;;4956833;29;20371;-63
2022/10/19 05:50:29;;;;;;;6.78;1.88;;;8.70;99.90;;;;;;4957024;29;20047;-63
2022/10/19 05:52:55;;;;;;;2.97;1.73;;;8.50;99.90;;;;;;4939397;29;20047;-63
2022/10/19 05:55:20;;;;;;;3.85;1.70;;;8.70;99.90;;;;;;4956601;29;20077;-63
2022/10/19 05:57:46;;;;;;;7.75;1.42;;;8.60;99.90;;;;;;4956373;29;20553;-63
2022/10/19 06:00:12;;;;;;;1.88;0.90;;;8.60;99.90;;;;;;4956755;29;20038;-63
2022/10/19 06:02:37;;;;;;;4.80;1.45;;;8.80;99.90;;;;;;4939215;29;20047;-63
2022/10/19 06:05:03;;;;;;;3.55;1.33;;;8.70;99.90;;;;;;4938915;28;20039;-63
2022/10/19 06:07:29;;;;;;;2.60;1.60;;;8.60;99.90;;;;;;4955516;29;20047;-63
2022/10/19 06:09:54;;;;;;;5.22;1.02;;;9.00;99.90;;;;;;4956521;29;20047;-63
2022/10/19 06:12:20;;;;;;;2.88;1.40;;;;;;;;;;4939296;29;20043;-63
2022/10/19 06:14:49;;;;;;;4.78;1.98;;;8.70;99.90;;;;;;4939208;29;20055;-63
2022/10/19 06:17:15;;;;;;;2.50;1.90;;;8.80;99.90;;;;;;4939122;29;20051;-63
2022/10/19 06:19:40;;;;;;;3.63;1.88;;;8.70;99.90;;;;;;4939011;29;20145;-64
2022/10/19 06:22:06;;;;;;;5.70;1.98;;;8.80;99.90;;;;;;4956022;29;20058;-64
2022/10/19 06:24:31;;;;;;;8.90;2.30;;;8.70;99.90;;;;;;4955262;28;20090;-64
2022/10/19 06:26:57;;;;;;;14.00;10.52;;;;;;;;;;4937499;29;20039;-64
2022/10/19 06:29:23;;;;;;;8.82;4.70;;;9.00;99.90;;;;;;4920328;29;20066;-64
2022/10/19 06:31:49;;;;;;;5.07;1.90;;;;;;;;;;4937385;29;20054;-64
2022/10/19 06:34:14;;;;;;;4.95;2.40;;;9.10;99.90;;;;;;4954945;29;20524;-64
2022/10/19 06:36:40;;;;;;;8.48;2.58;;;9.20;99.90;;;;;;4938153;29;20088;-64
2022/10/19 06:39:06;;;;;;;11.40;3.80;;;;;;;;;;4954944;29;20032;-64
2022/10/19 06:41:33;;;;;;;9.82;2.85;;;9.10;99.90;;;;;;4937784;29;20047;-64
2022/10/19 06:43:59;;;;;;;10.02;2.20;;;;;;;;;;4937816;29;20556;-64
2022/10/19 06:46:25;;;;;;;9.77;2.33;;;9.30;99.90;;;;;;4937565;29;20174;-63
2022/10/19 06:48:53;;;;;;;9.48;1.92;;;9.30;99.90;;;;;;4937710;29;20094;-64
2022/10/19 06:51:19;;;;;;;9.15;1.90;;;9.40;99.90;;;;;;4937686;29;20043;-64
2022/10/19 06:53:45;;;;;;;9.38;1.85;;;9.60;99.90;;;;;;4937443;29;20050;-63
2022/10/19 06:56:10;;;;;;;9.18;2.17;;;9.60;99.90;;;;;;4937588;29;20595;-64
2022/10/19 06:58:37;;;;;;;9.45;2.42;;;9.70;99.90;;;;;;4955078;29;20054;-64
2022/10/19 07:01:06;;;;;;;8.98;2.17;;;9.70;99.90;;;;;;4941756;28;20074;-64
2022/10/19 07:03:32;;;;;;;11.73;2.58;;;9.60;99.90;;;;;;4954635;28;20039;-64
2022/10/19 07:05:59;;;;;;;7.75;1.60;;;;;;;;;;4939022;28;20496;-64
2022/10/19 07:08:26;;;;;;;9.65;2.38;;;9.80;99.90;;;;;;4937361;28;20126;-63
2022/10/19 07:10:53;;;;;;;5.13;1.50;;;9.90;99.90;;;;;;4937503;29;20490;-64
2022/10/19 07:13:20;;;;;;;7.43;2.15;;;;;;;;;;4937019;29;20073;-65
2022/10/19 07:15:46;;;;;;;6.85;1.88;;;10.00;99.90;;;;;;4954764;29;20043;-64
2022/10/19 07:18:12;;;;;;;6.75;1.90;;;9.90;99.90;;;;;;4953935;28;20051;-64
2022/10/19 07:20:37;;;;;;;5.93;1.33;;;9.90;99.90;;;;;;4954250;29;20066;-64
2022/10/19 07:23:03;;;;;;;6.70;1.77;;;10.00;99.90;;;;;;4937059;29;20053;-64
2022/10/19 07:25:29;;;;;;;7.72;1.50;;;9.90;99.90;;;;;;4936108;29;20085;-64
2022/10/19 07:27:55;;;;;;;10.80;1.92;;;10.10;99.90;;;;;;4935910;29;20526;-64
2022/10/19 07:30:21;;;;;;;13.30;2.13;;;10.20;99.90;;;;;;4953592;29;20118;-64
2022/10/19 07:32:47;;;;;;;7.45;1.65;;;;;;;;;;4936331;29;20383;-64
2022/10/19 07:35:13;;;;;;;12.20;1.80;;;10.50;99.90;;;;;;4953204;29;20043;-65
2022/10/19 07:37:39;;;;;;;7.30;1.60;;;;;;;;;;4953166;29;20043;-65
2022/10/19 07:40:05;;;;;;;14.18;2.13;;;10.50;99.90;;;;;;4953422;28;20031;-65
2022/10/19 07:42:30;;;;;;;11.65;2.17;;;10.50;99.90;;;;;;4953805;28;20039;-65
2022/10/19 07:44:56;;;;;;;9.35;2.05;;;10.50;99.90;;;;;;4936289;28;20043;-65
2022/10/19 07:47:21;;;;;;;11.10;1.95;;;10.70;99.90;;;;;;4944487;28;20031;-65
2022/10/19 07:49:47;;;;;;;10.35;2.78;;;10.60;99.90;;;;;;4936409;28;20035;-65
2022/10/19 07:52:12;;;;;;;13.05;1.83;;;10.60;99.90;;;;;;4953347;28;20178;-65
2022/10/19 07:54:38;;;;;;;7.13;1.77;;;10.90;99.90;;;;;;4936361;28;20051;-65
2022/10/19 07:57:04;;;;;;;9.30;1.60;;;;;;;;;;4953426;28;20046;-65
2022/10/19 07:59:30;;;;;;;9.43;1.90;;;;;;;;;;4954107;29;20058;-65
2022/10/19 08:01:56;;;;;;;7.60;1.75;;;11.00;99.90;;;;;;4936820;29;20043;-65
2022/10/19 08:04:22;;;;;;;9.57;1.88;;;11.20;99.90;;;;;;4936326;29;20139;-65
2022/10/19 08:06:48;;;;;;;16.80;2.97;;;11.20;99.90;;;;;;4936557;28;20035;-65
2022/10/19 08:09:14;;;;;;;11.02;2.03;;;;;;;;;;4936118;28;20040;-65
2022/10/19 08:11:39;;;;;;;7.68;1.80;;;11.60;99.90;;;;;;4953323;28;20066;-65
2022/10/19 08:14:05;;;;;;;9.50;2.00;;;11.90;99.90;;;;;;4953540;28;20032;-65
2022/10/19 08:16:39;;;;;;;8.95;2.20;;;11.80;99.90;;;;;;4935700;28;20043;-66
2022/10/19 08:19:09;;;;;;;10.48;1.85;;;11.90;99.90;;;;;;4952749;28;20039;-65
2022/10/19 08:21:37;;;;;;;13.40;2.17;;;12.00;99.90;;;;;;4952947;28;20090;-65
2022/10/19 08:24:04;;;;;;;9.07;1.65;;;12.00;99.90;;;;;;4953240;28;20035;-65
2022/10/19 08:26:38;;;;;;;9.40;1.77;;;12.00;99.90;;;;;;4935758;28;20114;-66
2022/10/19 08:29:14;;;;;;;12.47;2.30;;;12.30;99.90;;;;;;4954849;28;20035;-64
2022/10/19 08:31:41;;;;;;;7.78;3.05;;;12.20;99.90;;;;;;4940780;29;20075;-65
2022/10/19 08:34:07;;;;;;;8.50;1.80;;;12.50;99.90;;;;;;4956910;29;20043;-66
2022/10/19 08:36:34;;;;;;;8.32;1.95;;;12.30;99.90;;;;;;4940726;29;20456;-66
2022/10/19 08:39:01;;;;;;;9.10;2.15;;;12.40;99.90;;;;;;4940493;29;20505;-65
2022/10/19 08:41:55;;;;;;;10.73;1.83;;;12.60;99.90;;;;;;4940728;29;20135;-65
2022/10/19 08:44:33;;;;;;;8.18;1.42;;;13.00;99.90;;;;;;4939400;29;20054;-65
2022/10/19 08:47:33;;;;;;;6.97;1.73;;;13.50;99.90;;;;;;4940575;29;20486;-65
2022/10/19 08:49:59;;;;;;;7.00;2.03;;;13.00;99.90;;;;;;4940742;29;20042;-65
2022/10/19 08:52:34;;;;;;;8.55;3.13;;;12.90;99.90;;;;;;4940838;29;20098;-66
2022/10/19 08:55:07;;;;;;;;;;;12.70;99.90;;;;;;4958071;29;20055;-65
2022/10/19 08:57:55;;;;;;;6.88;1.23;;;12.70;99.90;;;;;;4924678;29;19978;-65
2022/10/19 09:00:42;;;;;;;9.50;1.75;;;12.80;99.90;;;;;;4928745;29;20059;-65
2022/10/19 09:03:31;;;;;;;7.00;2.28;;;12.80;99.90;;;;;;4940285;29;20054;-65
2022/10/19 09:06:21;;;;;;;7.80;1.20;;;12.80;99.90;;;;;;4940648;29;20043;-65
2022/10/19 09:08:52;;;;;;;7.07;1.40;;;12.60;99.90;;;;;;4928455;29;20047;-65
2022/10/19 09:11:27;;;;;;;4.28;1.15;;;13.00;99.90;;;;;;4957702;29;20502;-65
2022/10/19 09:13:55;;;;;;;;;;;12.70;99.90;;;;;;4928577;29;20054;-64
2022/10/19 09:16:23;;;;;;;6.70;1.80;;;12.60;99.90;;;;;;4957288;29;19929;-64
2022/10/19 09:18:49;;;;;;;7.68;1.13;;;12.40;99.90;;;;;;4957285;29;20486;-65
2022/10/19 09:21:31;;;;;;;9.80;1.60;;;12.40;99.90;;;;;;4940010;29;20058;-65
2022/10/19 09:24:24;;;;;;;7.88;1.40;;;12.30;99.90;;;;;;4926785;29;20043;-64
2022/10/19 09:26:54;;;;;;;11.23;1.60;;;12.40;99.90;;;;;;4956999;29;20070;-65
2022/10/19 09:29:43;;;;;;;7.10;1.23;;;12.60;99.90;;;;;;4940183;29;20062;-65
2022/10/19 09:32:20;;;;;;;6.43;1.35;;;12.70;99.90;;;;;;4940010;29;20409;-65
2022/10/19 09:34:53;;;;;;;10.13;1.65;;;12.70;99.90;;;;;;4957315;29;20394;-65
2022/10/19 09:37:20;;;;;;;10.80;1.55;;;12.70;99.90;;;;;;4939611;29;20043;-65
2022/10/19 09:39:46;;;;;;;7.45;1.33;;;12.70;99.90;;;;;;4956525;28;20051;-65
2022/10/19 09:42:23;;;;;;;6.53;1.83;;;12.90;99.90;;;;;;4956837;29;20505;-64
2022/10/19 09:44:51;;;;;;;7.60;1.60;;;12.80;99.90;;;;;;4939564;29;20051;-65
2022/10/19 09:47:36;;;;;;;7.72;2.65;;;12.80;99.90;;;;;;4939537;29;20074;-65
2022/10/19 09:50:15;;;;;;;9.32;1.40;;;13.10;99.90;;;;;;4942879;29;20049;-64
2022/10/19 09:52:42;;;;;;;10.85;2.17;;;12.80;99.90;;;;;;4939318;29;20450;-65
2022/10/19 09:55:13;;;;;;;7.47;1.48;;;12.80;99.90;;;;;;4939421;29;20051;-65
2022/10/19 09:57:43;;;;;;;6.75;1.30;;;;;;;;;;4939554;29;20572;-64
2022/10/19 10:00:20;;;;;;;10.40;1.48;;;12.80;99.90;;;;;;4956589;28;20122;-65
2022/10/19 10:02:54;;;;;;;12.50;2.17;;;12.80;99.90;;;;;;4939079;29;20086;-65
2022/10/19 10:05:30;;;;;;;11.30;1.52;;;12.90;99.90;;;;;;4943974;29;20057;-65
2022/10/19 10:07:56;;;;;;;10.23;1.45;;;;;;;;;;4956716;29;20046;-66
2022/10/19 10:10:38;;;;;;;8.00;1.60;;;12.80;99.90;;;;;;4939321;29;20047;-65
2022/10/19 10:13:04;;;;;;;11.45;1.75;;;12.80;99.90;;;;;;4956529;29;20042;-65
2022/10/19 10:15:41;;;;;;;8.27;1.50;;;12.80;99.90;;;;;;4956517;29;20043;-65
2022/10/19 10:18:13;;;;;;;6.25;1.45;;;12.70;99.90;;;;;;4939133;29;20486;-65
2022/10/19 10:21:14;;;;;;;9.02;1.65;;;12.90;99.90;;;;;;4955456;29;20090;-65
2022/10/19 10:23:40;;;;;;;9.45;1.75;;;13.00;99.90;;;;;;4955621;29;20453;-65
2022/10/19 10:26:18;;;;;;;5.60;1.50;;;13.00;99.90;;;;;;4956364;29;20037;-65
2022/10/19 10:28:49;;;;;;;7.63;1.80;;;13.00;99.90;;;;;;4939087;29;20065;-65
2022/10/19 10:31:21;;;;;;;9.35;1.70;;;13.00;99.90;;;;;;4955927;28;20047;-65
2022/10/19 10:33:53;;;;;;;6.07;1.58;;;13.30;99.90;;;;;;4955642;29;20043;-65
2022/10/19 10:36:23;;;;;;;8.43;1.95;;;13.20;99.90;;;;;;4955807;28;20035;-65
2022/10/19 10:38:52;;;;;;;10.27;2.70;;;13.30;99.90;;;;;;4938629;29;20047;-65
2022/10/19 10:41:22;;;;;;;7.10;1.70;;;13.50;99.90;;;;;;4955806;29;20593;-65
2022/10/19 10:43:55;;;;;;;8.05;1.10;;;13.50;99.90;;;;;;4955610;28;20047;-64
2022/10/19 10:46:26;;;;;;;9.65;1.55;;;13.90;99.90;;;;;;4938334;29;20051;-65
2022/10/19 10:48:57;;;;;;;10.48;1.60;;;13.90;99.90;;;;;;4938687;29;20043;-65
2022/10/19 10:51:38;;;;;;;5.20;1.20;;;14.00;99.90;;;;;;4938113;28;20509;-65
2022/10/19 10:54:29;;;;;;;10.75;1.50;;;14.10;99.90;;;;;;4938113;29;20146;-65
2022/10/19 10:57:02;;;;;;;5.75;1.08;;;13.90;99.90;;;;;;4926610;29;20082;-65
2022/10/19 10:59:57;;;;;;;6.63;1.33;;;13.70;99.90;;;;;;4938209;29;20050;-65
2022/10/19 11:02:41;;;;;;;11.67;1.77;;;13.60;99.90;;;;;;4924315;29;20058;-65
2022/10/19 11:05:16;;;;;;;9.05;1.50;;;13.30;99.90;;;;;;4938336;29;20485;-65
2022/10/19 11:07:50;;;;;;;9.63;1.65;;;13.30;99.90;;;;;;4938520;29;20130;-65
2022/10/19 11:10:31;;;;;;;9.63;1.73;;;13.20;99.90;;;;;;4958346;28;20053;-65
2022/10/19 11:13:05;;;;;;;3.55;1.10;;;13.60;99.90;;;;;;4937608;29;20047;-65
2022/10/19 11:15:59;;;;;;;8.18;1.52;;;14.00;99.90;;;;;;4936765;28;20058;-64
2022/10/19 11:18:30;;;;;;;6.00;1.83;;;13.70;99.90;;;;;;4935201;29;20117;-65
2022/10/19 11:21:10;;;;;;;10.68;1.65;;;13.60;99.90;;;;;;4941161;29;20048;-65
2022/10/19 11:23:53;;;;;;;6.40;1.20;;;13.50;99.90;;;;;;4936834;28;20043;-65
2022/10/19 11:26:48;;;;;;;8.00;1.63;;;13.10;99.90;;;;;;4937513;28;20043;-64
2022/10/19 11:29:16;;;;;;;3.95;1.45;;;13.00;99.90;;;;;;4937398;28;20505;-64
2022/10/19 11:31:50;;;;;;;7.88;1.40;;;13.20;99.90;;;;;;4957597;28;20051;-65
2022/10/19 11:34:35;;;;;;;8.65;1.70;;;13.10;99.90;;;;;;4937872;29;20050;-65
2022/10/19 11:37:41;;;;;;;8.02;2.15;;;13.10;99.90;;;;;;4933403;29;20498;-65
2022/10/19 11:40:21;;;;;;;6.03;1.40;;;13.10;99.90;;;;;;4937742;29;20445;-65
2022/10/19 11:43:03;;;;;;;6.32;1.35;;;13.10;99.90;;;;;;4937397;28;20417;-66
2022/10/19 11:45:57;;;;;;;7.22;1.15;;;13.00;99.90;;;;;;4950423;29;20114;-65
2022/10/19 11:48:35;;;;;;;14.80;3.67;;;13.30;99.90;;;;;;4910152;29;20483;-65
2022/10/19 11:51:15;;;;;;;15.30;3.03;;;13.40;99.90;;;;;;4932446;29;20118;-65
2022/10/19 11:53:49;;;;;;;5.13;1.10;;;13.60;99.90;;;;;;4937201;29;20090;-65
2022/10/19 11:56:44;;;;;;;5.10;1.23;;;13.40;99.90;;;;;;4937447;29;20059;-65
2022/10/19 11:59:10;;;;;;;11.52;1.52;;;;;;;;;;4937553;29;20050;-66
2022/10/19 12:02:00;;;;;;;7.13;1.20;;;13.40;99.90;;;;;;4937346;29;20095;-65
2022/10/19 12:04:45;;;;;;;5.35;1.58;;;13.30;99.90;;;;;;4957142;28;20517;-65
2022/10/19 12:07:13;;;;;;;6.72;1.77;;;13.30;99.90;;;;;;4929933;29;20050;-65
2022/10/19 12:10:06;;;;;;;8.68;1.55;;;13.20;99.90;;;;;;4958306;29;20039;-65
2022/10/19 12:12:39;;;;;;;20.85;7.05;;;13.30;99.90;;;;;;4958606;29;20118;-65
2022/10/19 12:15:17;;;;;;;6.68;1.25;;;13.50;99.90;;;;;;4958481;29;20035;-65
2022/10/19 12:17:47;;;;;;;8.60;2.03;;;13.80;99.90;;;;;;4958524;29;20054;-65
2022/10/19 12:20:19;;;;;;;11.32;2.17;;;13.80;99.90;;;;;;4958152;29;20127;-65
2022/10/19 12:22:47;;;;;;;7.75;1.38;;;13.80;99.90;;;;;;4958437;29;20043;-65
2022/10/19 12:25:15;;;;;;;9.07;1.73;;;13.90;99.90;;;;;;4941131;29;20043;-65
2022/10/19 12:27:41;;;;;;;8.45;2.17;;;14.10;99.90;;;;;;4940964;29;20043;-65
2022/10/19 12:30:27;;;;;;;4.00;1.45;;;13.80;99.90;;;;;;4940944;29;20118;-65
2022/10/19 12:33:13;;;;;;;6.47;1.85;;;14.00;99.90;;;;;;4957591;29;20059;-65
2022/10/19 12:36:05;;;;;;;6.45;1.70;;;13.60;99.90;;;;;;4941153;29;20097;-65
2022/10/19 12:39:01;;;;;;;8.82;1.98;;;13.70;99.90;;;;;;4941053;29;20051;-65
2022/10/19 12:41:44;;;;;;;7.28;1.67;;;13.80;99.90;;;;;;4931115;29;20051;-65
2022/10/19 12:44:34;;;;;;;3.88;1.63;;;15.00;99.90;;;;;;4940676;29;20042;-65
2022/10/19 12:47:22;;;;;;;7.60;1.60;;;13.50;99.90;;;;;;4940623;29;20075;-65
2022/10/19 12:49:50;;;;;;;7.07;1.40;;;13.50;99.90;;;;;;4957236;28;20031;-65
2022/10/19 12:52:41;;;;;;;7.63;2.08;;;13.30;99.90;;;;;;4957976;29;20134;-65
2022/10/19 12:55:30;;;;;;;6.95;1.85;;;13.30;99.90;;;;;;4929355;29;20483;-65
2022/10/19 12:58:05;;;;;;;2.92;1.52;;;13.60;99.90;;;;;;4938740;29;20401;-65
2022/10/19 13:00:36;;;;;;;8.43;1.73;;;;;;;;;;4938291;29;20039;-65
2022/10/19 13:03:12;;;;;;;4.30;1.42;;;13.40;99.90;;;;;;4955416;29;20039;-65
2022/10/19 13:05:38;;;;;;;8.25;2.13;;;13.30;99.90;;;;;;4939034;29;20039;-65
2022/10/19 13:08:06;;;;;;;7.88;1.48;;;13.20;99.90;;;;;;4938475;29;20433;-65
2022/10/19 13:10:32;;;;;;;7.00;2.17;;;13.30;99.90;;;;;;4937878;29;20058;-66
2022/10/19 13:13:02;;;;;;;6.20;1.55;;;13.10;99.90;;;;;;4956243;29;20043;-66
2022/10/19 13:15:36;;;;;;;6.78;1.80;;;13.30;99.90;;;;;;4955570;28;20082;-65
2022/10/19 13:18:14;;;;;;;5.97;1.33;;;13.50;99.90;;;;;;4938256;28;20635;-65
2022/10/19 13:20:50;;;;;;;5.68;1.58;;;13.60;99.90;;;;;;4953545;29;20027;-65